sensor_id;sensor_type;location;lat;lon;timestamp;pressure;altitude;pressure_sealevel;temperature;humidity
60479;BME280;46321;48.398;11.754;2022-08-19T00:01:21;96027.03;;;18.95;83.55
60479;BME280;46321;48.398;11.754;2022-08-19T00:03:47;96031.47;;;18.89;83.76
60479;BME280;46321;48.398;11.754;2022-08-19T00:06:13;96039.50;;;18.89;83.88
60479;BME280;46321;48.398;11.754;2022-08-19T00:08:39;96043.25;;;18.88;83.86
60479;BME280;46321;48.398;11.754;2022-08-19T00:11:04;96057.81;;;18.92;83.35
60479;BME280;46321;48.398;11.754;2022-08-19T00:13:30;96059.19;;;18.95;83.49
60479;BME280;46321;48.398;11.754;2022-08-19T00:15:56;96063.06;;;18.87;83.30
60479;BME280;46321;48.398;11.754;2022-08-19T00:18:23;96065.34;;;18.95;83.08
60479;BME280;46321;48.398;11.754;2022-08-19T00:20:49;96049.50;;;18.94;82.78
60479;BME280;46321;48.398;11.754;2022-08-19T00:23:14;96052.69;;;18.91;82.93
60479;BME280;46321;48.398;11.754;2022-08-19T00:25:40;96058.38;;;18.94;82.73
60479;BME280;46321;48.398;11.754;2022-08-19T00:28:06;96052.34;;;18.87;82.87
60479;BME280;46321;48.398;11.754;2022-08-19T00:30:31;96048.03;;;18.86;83.17
60479;BME280;46321;48.398;11.754;2022-08-19T00:32:57;96039.84;;;18.93;82.35
60479;BME280;46321;48.398;11.754;2022-08-19T00:35:23;96036.81;;;18.89;82.51
60479;BME280;46321;48.398;11.754;2022-08-19T00:37:49;96028.78;;;18.89;82.49
60479;BME280;46321;48.398;11.754;2022-08-19T00:40:16;96013.59;;;18.95;82.72
60479;BME280;46321;48.398;11.754;2022-08-19T00:42:42;96013.34;;;18.96;82.23
60479;BME280;46321;48.398;11.754;2022-08-19T00:45:16;96013.84;;;18.93;82.09
60479;BME280;46321;48.398;11.754;2022-08-19T00:47:43;96018.53;;;18.86;82.62
60479;BME280;46321;48.398;11.754;2022-08-19T00:50:10;96012.94;;;18.87;82.62
60479;BME280;46321;48.398;11.754;2022-08-19T00:52:40;96012.53;;;18.96;81.88
60479;BME280;46321;48.398;11.754;2022-08-19T00:55:09;96014.91;;;18.92;82.22
60479;BME280;46321;48.398;11.754;2022-08-19T00:57:39;96016.63;;;18.98;81.72
60479;BME280;46321;48.398;11.754;2022-08-19T01:00:09;96008.97;;;18.90;82.13
60479;BME280;46321;48.398;11.754;2022-08-19T01:02:36;96000.66;;;18.92;82.54
60479;BME280;46321;48.398;11.754;2022-08-19T01:05:05;95997.66;;;18.88;82.72
60479;BME280;46321;48.398;11.754;2022-08-19T01:07:31;96004.66;;;18.89;82.34
60479;BME280;46321;48.398;11.754;2022-08-19T01:09:56;96006.28;;;18.90;82.50
60479;BME280;46321;48.398;11.754;2022-08-19T01:12:22;96025.38;;;18.94;82.55
60479;BME280;46321;48.398;11.754;2022-08-19T01:14:48;96033.91;;;18.91;82.22
60479;BME280;46321;48.398;11.754;2022-08-19T01:17:14;96031.00;;;18.92;82.36
60479;BME280;46321;48.398;11.754;2022-08-19T01:19:42;96028.16;;;18.99;81.88
60479;BME280;46321;48.398;11.754;2022-08-19T01:22:16;96017.09;;;18.95;82.24
60479;BME280;46321;48.398;11.754;2022-08-19T01:24:44;96005.00;;;18.93;82.20
60479;BME280;46321;48.398;11.754;2022-08-19T01:27:10;96018.16;;;18.94;82.22
60479;BME280;46321;48.398;11.754;2022-08-19T01:29:39;96020.84;;;18.94;82.18
60479;BME280;46321;48.398;11.754;2022-08-19T01:32:05;96036.91;;;18.94;82.24
60479;BME280;46321;48.398;11.754;2022-08-19T01:34:31;96034.00;;;18.96;82.18
60479;BME280;46321;48.398;11.754;2022-08-19T01:36:56;96046.09;;;18.98;81.97
60479;BME280;46321;48.398;11.754;2022-08-19T01:39:23;96039.47;;;19.01;81.89
60479;BME280;46321;48.398;11.754;2022-08-19T01:41:49;96037.09;;;19.05;81.81
60479;BME280;46321;48.398;11.754;2022-08-19T01:44:16;96038.06;;;18.98;81.95
60479;BME280;46321;48.398;11.754;2022-08-19T01:46:47;96034.72;;;18.91;82.48
60479;BME280;46321;48.398;11.754;2022-08-19T01:49:14;96029.59;;;18.90;82.63
60479;BME280;46321;48.398;11.754;2022-08-19T01:51:39;96032.28;;;18.90;82.41
60479;BME280;46321;48.398;11.754;2022-08-19T01:54:05;96035.28;;;18.93;82.75
60479;BME280;46321;48.398;11.754;2022-08-19T01:56:30;96037.97;;;18.93;82.68
60479;BME280;46321;48.398;11.754;2022-08-19T01:59:00;96036.91;;;18.94;82.85
60479;BME280;46321;48.398;11.754;2022-08-19T02:01:26;96045.44;;;18.91;82.58
60479;BME280;46321;48.398;11.754;2022-08-19T02:03:51;96053.00;;;18.94;82.64
60479;BME280;46321;48.398;11.754;2022-08-19T02:06:18;96064.56;;;18.95;82.63
60479;BME280;46321;48.398;11.754;2022-08-19T02:08:44;96064.88;;;18.98;82.33
60479;BME280;46321;48.398;11.754;2022-08-19T02:11:19;96062.78;;;19.00;82.24
60479;BME280;46321;48.398;11.754;2022-08-19T02:13:44;96055.44;;;18.96;82.49
60479;BME280;46321;48.398;11.754;2022-08-19T02:16:10;96042.59;;;18.98;82.48
60479;BME280;46321;48.398;11.754;2022-08-19T02:18:35;96025.94;;;18.96;82.63
60479;BME280;46321;48.398;11.754;2022-08-19T02:21:00;96039.09;;;18.97;82.86
60479;BME280;46321;48.398;11.754;2022-08-19T02:23:26;96046.94;;;18.99;82.51
60479;BME280;46321;48.398;11.754;2022-08-19T02:25:52;96061.63;;;18.96;82.58
60479;BME280;46321;48.398;11.754;2022-08-19T02:28:17;96062.44;;;18.97;82.67
60479;BME280;46321;48.398;11.754;2022-08-19T02:30:42;96061.88;;;18.95;82.90
60479;BME280;46321;48.398;11.754;2022-08-19T02:33:08;96060.22;;;18.94;82.93
60479;BME280;46321;48.398;11.754;2022-08-19T02:35:33;96060.13;;;18.88;82.95
60479;BME280;46321;48.398;11.754;2022-08-19T02:37:59;96055.25;;;18.85;82.81
60479;BME280;46321;48.398;11.754;2022-08-19T02:40:49;96067.03;;;18.84;83.39
60479;BME280;46321;48.398;11.754;2022-08-19T02:43:16;96069.38;;;18.81;83.69
60479;BME280;46321;48.398;11.754;2022-08-19T02:45:42;96068.31;;;18.82;83.81
60479;BME280;46321;48.398;11.754;2022-08-19T02:48:07;96071.81;;;18.82;83.18
60479;BME280;46321;48.398;11.754;2022-08-19T02:50:39;96078.94;;;18.76;83.64
60479;BME280;46321;48.398;11.754;2022-08-19T02:53:05;96063.25;;;18.68;84.01
60479;BME280;46321;48.398;11.754;2022-08-19T02:55:32;96062.06;;;18.76;84.08
60479;BME280;46321;48.398;11.754;2022-08-19T02:57:57;96051.47;;;18.69;84.38
60479;BME280;46321;48.398;11.754;2022-08-19T03:00:22;96040.75;;;18.69;84.29
60479;BME280;46321;48.398;11.754;2022-08-19T03:02:49;96031.09;;;18.68;84.03
60479;BME280;46321;48.398;11.754;2022-08-19T03:05:15;96030.34;;;18.73;83.95
60479;BME280;46321;48.398;11.754;2022-08-19T03:07:40;96026.63;;;18.74;83.89
60479;BME280;46321;48.398;11.754;2022-08-19T03:10:06;96022.09;;;18.74;84.00
60479;BME280;46321;48.398;11.754;2022-08-19T03:12:35;96030.69;;;18.76;83.69
60479;BME280;46321;48.398;11.754;2022-08-19T03:15:01;96023.81;;;18.81;83.69
60479;BME280;46321;48.398;11.754;2022-08-19T03:17:26;96030.00;;;18.81;83.62
60479;BME280;46321;48.398;11.754;2022-08-19T03:19:52;96028.34;;;18.80;83.69
60479;BME280;46321;48.398;11.754;2022-08-19T03:22:17;96033.25;;;18.83;83.55
60479;BME280;46321;48.398;11.754;2022-08-19T03:24:42;96032.66;;;18.81;83.46
60479;BME280;46321;48.398;11.754;2022-08-19T03:27:08;96038.59;;;18.83;83.58
60479;BME280;46321;48.398;11.754;2022-08-19T03:29:37;96041.50;;;18.82;83.81
60479;BME280;46321;48.398;11.754;2022-08-19T03:32:04;96048.25;;;18.84;83.26
60479;BME280;46321;48.398;11.754;2022-08-19T03:34:32;96041.75;;;18.80;83.89
60479;BME280;46321;48.398;11.754;2022-08-19T03:37:03;96048.41;;;18.77;84.03
60479;BME280;46321;48.398;11.754;2022-08-19T03:39:29;96052.53;;;18.68;84.71
60479;BME280;46321;48.398;11.754;2022-08-19T03:41:55;96047.25;;;18.73;84.29
60479;BME280;46321;48.398;11.754;2022-08-19T03:44:28;96055.22;;;18.68;84.83
60479;BME280;46321;48.398;11.754;2022-08-19T03:46:56;96041.88;;;18.73;84.70
60479;BME280;46321;48.398;11.754;2022-08-19T03:49:23;96041.69;;;18.75;84.47
60479;BME280;46321;48.398;11.754;2022-08-19T03:51:50;96048.75;;;18.81;84.01
60479;BME280;46321;48.398;11.754;2022-08-19T03:54:18;96047.47;;;18.84;83.84
60479;BME280;46321;48.398;11.754;2022-08-19T03:56:45;96062.47;;;18.85;83.84
60479;BME280;46321;48.398;11.754;2022-08-19T03:59:14;96058.09;;;18.79;84.27
60479;BME280;46321;48.398;11.754;2022-08-19T04:01:40;96061.22;;;18.75;84.38
60479;BME280;46321;48.398;11.754;2022-08-19T04:04:06;96055.97;;;18.81;84.35
60479;BME280;46321;48.398;11.754;2022-08-19T04:06:33;96054.44;;;18.85;84.31
60479;BME280;46321;48.398;11.754;2022-08-19T04:09:02;96054.44;;;18.85;83.78
60479;BME280;46321;48.398;11.754;2022-08-19T04:11:34;96063.69;;;18.77;84.49
60479;BME280;46321;48.398;11.754;2022-08-19T04:14:01;96065.31;;;18.78;84.33
60479;BME280;46321;48.398;11.754;2022-08-19T04:16:27;96060.28;;;18.82;84.15
60479;BME280;46321;48.398;11.754;2022-08-19T04:18:56;96048.66;;;18.76;84.66
60479;BME280;46321;48.398;11.754;2022-08-19T04:21:27;96045.72;;;18.77;84.32
60479;BME280;46321;48.398;11.754;2022-08-19T04:23:53;96045.72;;;18.77;84.37
60479;BME280;46321;48.398;11.754;2022-08-19T04:26:23;96051.66;;;18.80;84.19
60479;BME280;46321;48.398;11.754;2022-08-19T04:28:49;96063.84;;;18.70;84.76
60479;BME280;46321;48.398;11.754;2022-08-19T04:31:19;96065.44;;;18.71;84.59
60479;BME280;46321;48.398;11.754;2022-08-19T04:33:44;96050.28;;;18.77;84.14
60479;BME280;46321;48.398;11.754;2022-08-19T04:36:22;96049.53;;;18.82;84.36
60479;BME280;46321;48.398;11.754;2022-08-19T04:38:49;96047.94;;;18.81;84.24
60479;BME280;46321;48.398;11.754;2022-08-19T04:41:15;96052.22;;;18.82;84.46
60479;BME280;46321;48.398;11.754;2022-08-19T04:43:59;96061.66;;;18.84;83.71
60479;BME280;46321;48.398;11.754;2022-08-19T04:46:25;96074.84;;;18.86;83.90
60479;BME280;46321;48.398;11.754;2022-08-19T04:48:50;96075.88;;;18.85;84.06
60479;BME280;46321;48.398;11.754;2022-08-19T04:51:15;96081.34;;;18.90;83.69
60479;BME280;46321;48.398;11.754;2022-08-19T04:53:41;96087.19;;;18.87;83.70
60479;BME280;46321;48.398;11.754;2022-08-19T04:56:13;96090.56;;;18.82;83.62
60479;BME280;46321;48.398;11.754;2022-08-19T04:58:41;96097.34;;;18.85;83.44
60479;BME280;46321;48.398;11.754;2022-08-19T05:01:08;96096.31;;;18.86;83.64
60479;BME280;46321;48.398;11.754;2022-08-19T05:03:35;96093.84;;;18.84;83.95
60479;BME280;46321;48.398;11.754;2022-08-19T05:06:06;96097.44;;;18.90;83.93
60479;BME280;46321;48.398;11.754;2022-08-19T05:08:33;96105.00;;;18.93;83.63
60479;BME280;46321;48.398;11.754;2022-08-19T05:10:59;96105.81;;;18.94;83.30
60479;BME280;46321;48.398;11.754;2022-08-19T05:13:25;96097.66;;;18.88;83.79
60479;BME280;46321;48.398;11.754;2022-08-19T05:15:58;96108.81;;;18.97;83.49
60479;BME280;46321;48.398;11.754;2022-08-19T05:18:24;96109.44;;;18.99;83.45
60479;BME280;46321;48.398;11.754;2022-08-19T05:21:14;96122.91;;;19.05;82.90
60479;BME280;46321;48.398;11.754;2022-08-19T05:23:58;96112.75;;;19.07;83.07
60479;BME280;46321;48.398;11.754;2022-08-19T05:26:24;96109.28;;;19.06;82.51
60479;BME280;46321;48.398;11.754;2022-08-19T05:28:52;96108.06;;;19.14;82.30
60479;BME280;46321;48.398;11.754;2022-08-19T05:31:18;96110.31;;;19.17;82.17
60479;BME280;46321;48.398;11.754;2022-08-19T05:33:44;96121.06;;;19.17;82.29
60479;BME280;46321;48.398;11.754;2022-08-19T05:36:09;96114.38;;;19.20;81.88
60479;BME280;46321;48.398;11.754;2022-08-19T05:38:35;96119.72;;;19.20;81.96
60479;BME280;46321;48.398;11.754;2022-08-19T05:41:06;96108.44;;;19.18;81.83
60479;BME280;46321;48.398;11.754;2022-08-19T05:43:31;96106.31;;;19.20;81.96
60479;BME280;46321;48.398;11.754;2022-08-19T05:45:56;96102.84;;;19.19;81.94
60479;BME280;46321;48.398;11.754;2022-08-19T05:48:21;96107.13;;;19.20;82.01
60479;BME280;46321;48.398;11.754;2022-08-19T05:50:47;96109.25;;;19.18;82.51
60479;BME280;46321;48.398;11.754;2022-08-19T05:53:15;96100.38;;;19.18;82.09
60479;BME280;46321;48.398;11.754;2022-08-19T05:55:41;96099.81;;;19.16;81.77
60479;BME280;46321;48.398;11.754;2022-08-19T05:58:07;96100.38;;;19.18;82.30
60479;BME280;46321;48.398;11.754;2022-08-19T06:00:33;96099.22;;;19.14;81.99
60479;BME280;46321;48.398;11.754;2022-08-19T06:02:58;96099.13;;;19.08;82.10
60479;BME280;46321;48.398;11.754;2022-08-19T06:05:28;96091.88;;;19.09;82.38
60479;BME280;46321;48.398;11.754;2022-08-19T06:07:54;96088.72;;;19.12;82.13
60479;BME280;46321;48.398;11.754;2022-08-19T06:10:19;96091.97;;;19.14;82.03
60479;BME280;46321;48.398;11.754;2022-08-19T06:12:47;96096.66;;;19.07;82.46
60479;BME280;46321;48.398;11.754;2022-08-19T06:15:13;96093.19;;;19.06;82.55
60479;BME280;46321;48.398;11.754;2022-08-19T06:17:40;96101.97;;;19.02;82.49
60479;BME280;46321;48.398;11.754;2022-08-19T06:20:09;96104.63;;;19.02;82.27
60479;BME280;46321;48.398;11.754;2022-08-19T06:22:42;96105.00;;;18.93;83.21
60479;BME280;46321;48.398;11.754;2022-08-19T06:25:08;96113.41;;;18.97;82.73
60479;BME280;46321;48.398;11.754;2022-08-19T06:27:34;96117.38;;;18.94;82.98
60479;BME280;46321;48.398;11.754;2022-08-19T06:30:00;96118.91;;;18.78;83.55
60479;BME280;46321;48.398;11.754;2022-08-19T06:32:25;96123.00;;;18.81;83.58
60479;BME280;46321;48.398;11.754;2022-08-19T06:34:51;96123.00;;;18.81;83.99
60479;BME280;46321;48.398;11.754;2022-08-19T06:37:16;96123.13;;;18.74;84.29
60479;BME280;46321;48.398;11.754;2022-08-19T06:39:43;96128.50;;;18.74;84.07
60479;BME280;46321;48.398;11.754;2022-08-19T06:42:10;96123.81;;;18.81;84.04
60479;BME280;46321;48.398;11.754;2022-08-19T06:44:38;96119.84;;;18.84;83.83
60479;BME280;46321;48.398;11.754;2022-08-19T06:47:07;96111.56;;;18.85;84.20
60479;BME280;46321;48.398;11.754;2022-08-19T06:49:33;96113.53;;;18.90;83.81
60479;BME280;46321;48.398;11.754;2022-08-19T06:51:59;96110.59;;;18.92;84.00
60479;BME280;46321;48.398;11.754;2022-08-19T06:54:26;96105.81;;;18.94;84.19
60479;BME280;46321;48.398;11.754;2022-08-19T06:56:53;96115.72;;;18.93;84.04
60479;BME280;46321;48.398;11.754;2022-08-19T06:59:21;96121.78;;;18.88;84.39
60479;BME280;46321;48.398;11.754;2022-08-19T07:01:53;96118.31;;;18.88;85.00
60479;BME280;46321;48.398;11.754;2022-08-19T07:04:21;96121.56;;;18.90;85.54
60479;BME280;46321;48.398;11.754;2022-08-19T07:06:47;96117.25;;;18.89;85.64
60479;BME280;46321;48.398;11.754;2022-08-19T07:09:16;96116.53;;;18.94;85.37
60479;BME280;46321;48.398;11.754;2022-08-19T07:11:47;96122.03;;;18.87;85.62
60479;BME280;46321;48.398;11.754;2022-08-19T07:14:14;96126.44;;;18.93;85.35
60479;BME280;46321;48.398;11.754;2022-08-19T07:16:43;96123.88;;;18.98;86.08
60479;BME280;46321;48.398;11.754;2022-08-19T07:19:10;96122.00;;;18.99;86.19
60479;BME280;46321;48.398;11.754;2022-08-19T07:21:35;96120.47;;;19.03;85.92
60479;BME280;46321;48.398;11.754;2022-08-19T07:24:00;96116.00;;;19.09;86.29
60479;BME280;46321;48.398;11.754;2022-08-19T07:26:39;96121.16;;;19.10;86.52
60479;BME280;46321;48.398;11.754;2022-08-19T07:29:05;96111.13;;;19.18;86.71
60479;BME280;46321;48.398;11.754;2022-08-19T07:31:31;96107.97;;;19.21;86.58
60479;BME280;46321;48.398;11.754;2022-08-19T07:34:05;96113.75;;;19.30;86.21
60479;BME280;46321;48.398;11.754;2022-08-19T07:36:36;96100.19;;;19.37;85.78
60479;BME280;46321;48.398;11.754;2022-08-19T07:39:10;96105.50;;;19.49;86.58
60479;BME280;46321;48.398;11.754;2022-08-19T07:41:35;96094.34;;;19.57;85.40
60479;BME280;46321;48.398;11.754;2022-08-19T07:44:03;96088.56;;;19.65;84.37
60479;BME280;46321;48.398;11.754;2022-08-19T07:46:31;96087.59;;;19.72;85.01
60479;BME280;46321;48.398;11.754;2022-08-19T07:48:56;96087.53;;;19.84;84.84
60479;BME280;46321;48.398;11.754;2022-08-19T07:51:23;96085.72;;;19.89;84.63
60479;BME280;46321;48.398;11.754;2022-08-19T07:53:49;96092.72;;;19.90;84.53
60479;BME280;46321;48.398;11.754;2022-08-19T07:56:17;96090.59;;;19.93;83.62
60479;BME280;46321;48.398;11.754;2022-08-19T07:58:44;96088.97;;;19.91;83.36
60479;BME280;46321;48.398;11.754;2022-08-19T08:01:13;96087.94;;;19.93;83.53
60479;BME280;46321;48.398;11.754;2022-08-19T08:03:39;96086.28;;;19.91;82.69
60479;BME280;46321;48.398;11.754;2022-08-19T08:06:24;96085.16;;;19.87;83.94
60479;BME280;46321;48.398;11.754;2022-08-19T08:09:09;96091.25;;;19.83;84.06
60479;BME280;46321;48.398;11.754;2022-08-19T08:12:18;96086.13;;;19.81;83.94
60479;BME280;46321;48.398;11.754;2022-08-19T08:14:47;96085.25;;;19.75;84.24
60479;BME280;46321;48.398;11.754;2022-08-19T08:17:14;96079.31;;;19.73;84.78
60479;BME280;46321;48.398;11.754;2022-08-19T08:19:40;96082.88;;;19.79;84.43
60479;BME280;46321;48.398;11.754;2022-08-19T08:22:11;96067.03;;;19.77;85.17
60479;BME280;46321;48.398;11.754;2022-08-19T08:25:17;96064.34;;;19.77;84.99
60479;BME280;46321;48.398;11.754;2022-08-19T08:27:44;96059.53;;;19.79;84.74
60479;BME280;46321;48.398;11.754;2022-08-19T08:30:16;96060.19;;;19.87;85.73
60479;BME280;46321;48.398;11.754;2022-08-19T08:32:42;96061.06;;;19.93;84.85
60479;BME280;46321;48.398;11.754;2022-08-19T08:35:11;96074.88;;;20.01;83.84
60479;BME280;46321;48.398;11.754;2022-08-19T08:37:38;96082.69;;;20.03;83.81
60479;BME280;46321;48.398;11.754;2022-08-19T08:40:10;96085.16;;;20.05;83.93
60479;BME280;46321;48.398;11.754;2022-08-19T08:42:45;96086.50;;;20.07;83.95
60479;BME280;46321;48.398;11.754;2022-08-19T08:45:16;96093.63;;;20.13;83.06
60479;BME280;46321;48.398;11.754;2022-08-19T08:47:45;96097.88;;;20.09;82.28
60479;BME280;46321;48.398;11.754;2022-08-19T08:50:19;96103.44;;;20.08;82.48
60479;BME280;46321;48.398;11.754;2022-08-19T08:52:50;96108.25;;;20.06;82.33
60479;BME280;46321;48.398;11.754;2022-08-19T08:55:20;96116.56;;;20.04;82.66
60479;BME280;46321;48.398;11.754;2022-08-19T09:00:16;96125.53;;;19.93;82.34
60479;BME280;46321;48.398;11.754;2022-08-19T09:02:43;96131.88;;;19.86;82.70
60479;BME280;46321;48.398;11.754;2022-08-19T09:05:09;96133.66;;;19.80;82.99
60479;BME280;46321;48.398;11.754;2022-08-19T09:07:56;96129.34;;;19.79;82.83
60479;BME280;46321;48.398;11.754;2022-08-19T09:10:32;96132.44;;;19.71;83.46
60479;BME280;46321;48.398;11.754;2022-08-19T09:16:11;96134.78;;;19.67;84.80
60479;BME280;46321;48.398;11.754;2022-08-19T09:18:42;96129.41;;;19.67;84.78
60479;BME280;46321;48.398;11.754;2022-08-19T09:21:08;96131.63;;;19.71;85.27
60479;BME280;46321;48.398;11.754;2022-08-19T09:23:35;96129.91;;;19.64;85.57
60479;BME280;46321;48.398;11.754;2022-08-19T09:26:00;96137.41;;;19.62;85.77
60479;BME280;46321;48.398;11.754;2022-08-19T09:28:25;96141.44;;;19.65;85.82
60479;BME280;46321;48.398;11.754;2022-08-19T09:30:51;96137.31;;;19.57;84.95
60479;BME280;46321;48.398;11.754;2022-08-19T09:33:16;96139.47;;;19.60;85.45
60479;BME280;46321;48.398;11.754;2022-08-19T09:35:42;96132.97;;;19.56;86.09
60479;BME280;46321;48.398;11.754;2022-08-19T09:38:07;96125.03;;;19.61;85.58
60479;BME280;46321;48.398;11.754;2022-08-19T09:40:33;96135.44;;;19.58;86.26
60479;BME280;46321;48.398;11.754;2022-08-19T09:42:58;96127.97;;;19.60;86.99
60479;BME280;46321;48.398;11.754;2022-08-19T09:45:28;96128.53;;;19.62;86.69
60479;BME280;46321;48.398;11.754;2022-08-19T09:47:53;96129.41;;;19.50;86.22
60479;BME280;46321;48.398;11.754;2022-08-19T09:50:19;96131.97;;;19.45;86.88
60479;BME280;46321;48.398;11.754;2022-08-19T09:52:45;96129.69;;;19.37;87.60
60479;BME280;46321;48.398;11.754;2022-08-19T09:55:11;96133.06;;;19.44;87.64
60479;BME280;46321;48.398;11.754;2022-08-19T09:57:37;96134.78;;;19.50;87.55
60479;BME280;46321;48.398;11.754;2022-08-19T10:00:07;96129.16;;;19.52;87.98
60479;BME280;46321;48.398;11.754;2022-08-19T10:02:33;96130.47;;;19.66;87.95
60479;BME280;46321;48.398;11.754;2022-08-19T10:04:58;96136.16;;;19.70;88.07
60479;BME280;46321;48.398;11.754;2022-08-19T10:07:42;96127.22;;;19.82;87.69
60479;BME280;46321;48.398;11.754;2022-08-19T10:10:07;96132.75;;;19.92;86.70
60479;BME280;46321;48.398;11.754;2022-08-19T10:12:34;96130.88;;;19.93;87.53
60479;BME280;46321;48.398;11.754;2022-08-19T10:15:00;96135.63;;;20.02;87.26
60479;BME280;46321;48.398;11.754;2022-08-19T10:17:27;96133.50;;;20.05;87.94
60479;BME280;46321;48.398;11.754;2022-08-19T10:19:52;96140.19;;;20.02;88.11
60479;BME280;46321;48.398;11.754;2022-08-19T10:22:18;96142.84;;;20.02;87.76
60479;BME280;46321;48.398;11.754;2022-08-19T10:24:45;96138.16;;;20.09;87.23
60479;BME280;46321;48.398;11.754;2022-08-19T10:27:10;96147.69;;;20.17;85.50
60479;BME280;46321;48.398;11.754;2022-08-19T10:29:37;96144.25;;;20.22;86.27
60479;BME280;46321;48.398;11.754;2022-08-19T10:32:06;96146.69;;;20.23;85.86
60479;BME280;46321;48.398;11.754;2022-08-19T10:34:32;96151.31;;;20.28;85.97
60479;BME280;46321;48.398;11.754;2022-08-19T10:36:58;96142.28;;;20.34;84.94
60479;BME280;46321;48.398;11.754;2022-08-19T10:39:25;96152.78;;;20.36;86.33
60479;BME280;46321;48.398;11.754;2022-08-19T10:41:53;96148.28;;;20.42;85.23
60479;BME280;46321;48.398;11.754;2022-08-19T10:44:18;96135.06;;;20.57;85.00
60479;BME280;46321;48.398;11.754;2022-08-19T10:46:44;96138.44;;;20.70;85.12
60479;BME280;46321;48.398;11.754;2022-08-19T10:49:11;96125.06;;;21.20;83.39
60479;BME280;46321;48.398;11.754;2022-08-19T10:51:38;96115.81;;;22.96;79.64
60479;BME280;46321;48.398;11.754;2022-08-19T10:54:22;96111.78;;;25.78;68.53
60479;BME280;46321;48.398;11.754;2022-08-19T10:56:48;96112.44;;;26.98;62.88
60479;BME280;46321;48.398;11.754;2022-08-19T10:59:18;96112.13;;;26.80;59.31
60479;BME280;46321;48.398;11.754;2022-08-19T11:01:46;96115.31;;;26.09;61.24
60479;BME280;46321;48.398;11.754;2022-08-19T11:04:12;96119.25;;;25.06;61.88
60479;BME280;46321;48.398;11.754;2022-08-19T11:06:40;96114.34;;;24.21;65.49
60479;BME280;46321;48.398;11.754;2022-08-19T11:09:07;96109.22;;;23.83;67.21
60479;BME280;46321;48.398;11.754;2022-08-19T11:11:34;96113.50;;;23.42;67.48
60479;BME280;46321;48.398;11.754;2022-08-19T11:14:04;96108.63;;;23.33;68.87
60479;BME280;46321;48.398;11.754;2022-08-19T11:16:30;96108.09;;;23.42;68.85
60479;BME280;46321;48.398;11.754;2022-08-19T11:18:58;96107.06;;;23.69;69.36
60479;BME280;46321;48.398;11.754;2022-08-19T11:21:30;96110.31;;;24.02;68.65
60479;BME280;46321;48.398;11.754;2022-08-19T11:23:59;96103.81;;;24.14;67.70
60479;BME280;46321;48.398;11.754;2022-08-19T11:26:26;96105.41;;;24.41;66.52
60479;BME280;46321;48.398;11.754;2022-08-19T11:28:52;96109.13;;;24.56;65.65
60479;BME280;46321;48.398;11.754;2022-08-19T11:31:21;96110.19;;;24.60;64.17
60479;BME280;46321;48.398;11.754;2022-08-19T11:33:47;96103.41;;;24.68;64.21
60479;BME280;46321;48.398;11.754;2022-08-19T11:36:16;96095.84;;;24.70;64.44
60479;BME280;46321;48.398;11.754;2022-08-19T11:38:42;96101.50;;;24.74;64.10
60479;BME280;46321;48.398;11.754;2022-08-19T11:41:07;96098.53;;;24.70;64.28
60479;BME280;46321;48.398;11.754;2022-08-19T11:43:34;96089.66;;;24.48;62.81
60479;BME280;46321;48.398;11.754;2022-08-19T11:46:06;96093.00;;;24.19;63.37
60479;BME280;46321;48.398;11.754;2022-08-19T11:48:32;96089.22;;;24.10;64.15
60479;BME280;46321;48.398;11.754;2022-08-19T11:50:57;96093.28;;;23.97;64.73
60479;BME280;46321;48.398;11.754;2022-08-19T11:53:23;96094.91;;;23.82;66.37
60479;BME280;46321;48.398;11.754;2022-08-19T11:55:49;96094.63;;;23.99;66.02
60479;BME280;46321;48.398;11.754;2022-08-19T11:58:16;96083.28;;;24.08;65.17
60479;BME280;46321;48.398;11.754;2022-08-19T12:00:43;96090.31;;;24.04;64.92
60479;BME280;46321;48.398;11.754;2022-08-19T12:03:11;96076.50;;;24.05;65.64
60479;BME280;46321;48.398;11.754;2022-08-19T12:05:37;96087.03;;;24.07;64.64
60479;BME280;46321;48.398;11.754;2022-08-19T12:08:03;96083.53;;;23.90;64.66
60479;BME280;46321;48.398;11.754;2022-08-19T12:10:29;96077.88;;;23.92;65.96
60479;BME280;46321;48.398;11.754;2022-08-19T12:12:54;96071.38;;;23.98;66.55
60479;BME280;46321;48.398;11.754;2022-08-19T12:15:19;96085.19;;;23.86;66.13
60479;BME280;46321;48.398;11.754;2022-08-19T12:17:45;96080.31;;;23.73;65.84
60479;BME280;46321;48.398;11.754;2022-08-19T12:20:12;96082.75;;;23.64;65.50
60479;BME280;46321;48.398;11.754;2022-08-19T12:22:39;96095.97;;;23.55;65.13
60479;BME280;46321;48.398;11.754;2022-08-19T12:25:07;96095.13;;;23.44;66.01
60479;BME280;46321;48.398;11.754;2022-08-19T12:27:34;96088.66;;;23.40;66.56
60479;BME280;46321;48.398;11.754;2022-08-19T12:30:01;96082.97;;;23.41;67.10
60479;BME280;46321;48.398;11.754;2022-08-19T12:32:27;96085.69;;;23.31;67.45
60479;BME280;46321;48.398;11.754;2022-08-19T12:34:52;96092.13;;;23.19;67.94
60479;BME280;46321;48.398;11.754;2022-08-19T12:37:17;96097.81;;;23.23;67.98
60479;BME280;46321;48.398;11.754;2022-08-19T12:39:43;96102.66;;;23.26;68.17
60479;BME280;46321;48.398;11.754;2022-08-19T12:42:13;96097.63;;;23.56;68.12
60479;BME280;46321;48.398;11.754;2022-08-19T12:44:40;96103.81;;;23.77;66.88
60479;BME280;46321;48.398;11.754;2022-08-19T12:47:06;96099.75;;;23.75;66.07
60479;BME280;46321;48.398;11.754;2022-08-19T12:49:33;96100.03;;;23.84;65.98
60479;BME280;46321;48.398;11.754;2022-08-19T12:52:03;96100.59;;;23.86;64.70
60479;BME280;46321;48.398;11.754;2022-08-19T12:54:28;96111.94;;;23.83;64.71
60479;BME280;46321;48.398;11.754;2022-08-19T12:56:54;96105.72;;;23.77;64.89
60479;BME280;46321;48.398;11.754;2022-08-19T12:59:19;96114.09;;;23.70;64.39